Time;durP1;ratioP1;P1;durP2;ratioP2;P2;SDS_P1;SDS_P2;PMS_P1;PMS_P2;Temp;Humidity;BMP_temperature;BMP_pressure;BME280_temperature;BME280_humidity;BME280_pressure;Samples;Min_cycle;Max_cycle;Signal;HPM_P1;HPM_P2
2023/04/22 00:02:16;;;;;;;4.45;2.60;;;15.50;43.90;;;;;;6240252;22;20020;-79
2023/04/22 00:04:44;;;;;;;4.45;2.58;;;15.40;43.90;;;;;;6240175;22;20020;-79
2023/04/22 00:07:11;;;;;;;3.58;2.40;;;15.40;43.90;;;;;;6213295;23;20016;-78
2023/04/22 00:09:38;;;;;;;4.03;2.50;;;15.40;43.90;;;;;;6240727;23;20015;-78
2023/04/22 00:12:04;;;;;;;4.47;2.42;;;15.40;43.90;;;;;;6213217;23;20024;-78
2023/04/22 00:14:30;;;;;;;6.57;3.00;;;15.40;43.90;;;;;;6239641;22;20016;-79
2023/04/22 00:16:56;;;;;;;4.50;2.58;;;15.30;43.90;;;;;;6240728;22;20027;-78
2023/04/22 00:19:23;;;;;;;7.35;2.85;;;15.30;44.10;;;;;;6239374;22;20016;-77
2023/04/22 00:21:49;;;;;;;4.30;2.83;;;15.20;44.10;;;;;;6187072;22;20015;-77
2023/04/22 00:24:15;;;;;;;3.78;2.50;;;15.20;44.20;;;;;;6239128;23;20428;-77
2023/04/22 00:26:41;;;;;;;5.13;2.80;;;15.30;44.30;;;;;;6239804;22;20039;-77
2023/04/22 00:29:07;;;;;;;4.13;2.90;;;15.20;44.40;;;;;;6188236;23;20027;-77
2023/04/22 00:31:32;;;;;;;4.80;2.35;;;15.20;44.40;;;;;;6212945;23;20020;-77
2023/04/22 00:33:58;;;;;;;5.63;2.88;;;15.20;44.40;;;;;;6240034;22;20095;-78
2023/04/22 00:36:25;;;;;;;3.97;2.58;;;15.20;44.50;;;;;;6240636;23;20083;-77
2023/04/22 00:38:50;;;;;;;3.65;2.30;;;15.20;44.50;;;;;;6213331;23;20020;-78
2023/04/22 00:41:17;;;;;;;3.65;2.72;;;15.10;44.50;;;;;;6239997;22;20020;-77
2023/04/22 00:43:44;;;;;;;4.38;2.40;;;15.10;44.60;;;;;;6213126;23;20114;-77
2023/04/22 00:46:10;;;;;;;4.30;2.60;;;15.10;44.60;;;;;;6212710;23;20019;-79
2023/04/22 00:48:37;;;;;;;4.20;2.78;;;15.10;44.60;;;;;;6240487;23;20107;-79
2023/04/22 00:51:04;;;;;;;4.13;2.33;;;15.10;44.60;;;;;;6163568;23;20012;-79
2023/04/22 00:53:30;;;;;;;4.10;2.72;;;15.10;44.80;;;;;;6240202;22;20027;-79
2023/04/22 00:55:56;;;;;;;3.70;2.67;;;15.00;44.70;;;;;;6213436;23;20020;-79
2023/04/22 00:58:26;;;;;;;3.90;2.60;;;15.00;44.80;;;;;;6239681;22;20046;-78
2023/04/22 01:00:52;;;;;;;3.50;2.38;;;15.00;44.90;;;;;;6213250;22;20348;-80
2023/04/22 01:03:19;;;;;;;4.28;2.63;;;15.00;45.10;;;;;;6213999;23;20070;-79
2023/04/22 01:05:49;;;;;;;6.13;2.95;;;15.00;45.00;;;;;;6214803;23;20031;-80
2023/04/22 01:08:16;;;;;;;4.72;2.35;;;15.00;45.20;;;;;;6214760;23;20483;-80
2023/04/22 01:10:42;;;;;;;5.03;2.85;;;15.00;45.30;;;;;;6215439;23;20098;-79
2023/04/22 01:13:09;;;;;;;3.47;2.72;;;15.00;45.10;;;;;;6214979;23;20398;-77
2023/04/22 01:15:35;;;;;;;4.78;3.05;;;14.90;45.00;;;;;;6189758;23;20073;-78
2023/04/22 01:18:03;;;;;;;4.57;2.45;;;14.90;45.00;;;;;;6241942;22;20024;-78
2023/04/22 01:20:29;;;;;;;6.63;2.80;;;14.90;45.20;;;;;;6214315;23;20074;-77
2023/04/22 01:22:56;;;;;;;5.38;3.35;;;14.90;45.30;;;;;;6214485;23;20107;-77
2023/04/22 01:25:27;;;;;;;5.60;3.08;;;14.90;45.30;;;;;;6214460;23;20078;-78
2023/04/22 01:27:54;;;;;;;5.57;3.20;;;14.90;45.40;;;;;;6241140;22;20055;-77
2023/04/22 01:30:20;;;;;;;5.13;3.08;;;14.90;45.40;;;;;;6241524;23;20078;-77
2023/04/22 01:32:46;;;;;;;5.63;2.92;;;14.90;45.70;;;;;;6218010;23;20027;-78
2023/04/22 01:35:12;;;;;;;5.43;2.80;;;14.90;45.50;;;;;;6241611;22;20412;-77
2023/04/22 01:37:39;;;;;;;6.72;3.13;;;14.90;45.50;;;;;;6213990;23;20020;-77
2023/04/22 01:40:06;;;;;;;4.30;3.20;;;14.90;45.60;;;;;;6240631;22;20035;-76
2023/04/22 01:42:32;;;;;;;5.35;2.80;;;14.90;45.50;;;;;;6241118;23;20008;-77
2023/04/22 01:44:58;;;;;;;4.93;2.95;;;14.90;45.60;;;;;;6214308;23;20023;-77
2023/04/22 01:47:26;;;;;;;4.63;3.10;;;14.90;45.70;;;;;;6214645;23;20024;-77
2023/04/22 01:49:52;;;;;;;4.95;2.40;;;14.80;45.70;;;;;;6241313;22;20414;-78
2023/04/22 01:52:19;;;;;;;5.05;2.90;;;14.80;45.70;;;;;;6241721;22;20012;-78
2023/04/22 01:54:45;;;;;;;5.55;2.97;;;14.80;45.80;;;;;;6189355;22;20019;-78
2023/04/22 01:57:15;;;;;;;4.13;2.90;;;14.80;45.80;;;;;;6214594;23;20012;-78
2023/04/22 01:59:41;;;;;;;4.35;2.83;;;14.80;46.00;;;;;;6188376;23;20016;-77
2023/04/22 02:02:07;;;;;;;6.82;3.00;;;14.70;46.00;;;;;;6240426;22;20016;-76
2023/04/22 02:04:33;;;;;;;7.15;2.90;;;14.70;45.90;;;;;;6213299;23;20039;-76
2023/04/22 02:06:59;;;;;;;3.30;2.55;;;14.70;45.90;;;;;;6213510;22;20447;-76
2023/04/22 02:09:25;;;;;;;3.22;2.65;;;14.70;46.00;;;;;;6240396;23;20099;-77
2023/04/22 02:11:51;;;;;;;6.78;3.05;;;14.70;46.20;;;;;;6188238;23;20031;-77
2023/04/22 02:14:20;;;;;;;4.68;2.83;;;14.60;46.10;;;;;;6213708;23;20023;-77
2023/04/22 02:16:46;;;;;;;6.07;2.90;;;14.70;46.10;;;;;;6187520;23;20028;-77
2023/04/22 02:19:12;;;;;;;6.40;3.10;;;14.60;46.30;;;;;;6213444;23;20023;-77
2023/04/22 02:21:38;;;;;;;3.97;2.75;;;14.60;46.30;;;;;;6189788;23;20043;-78
2023/04/22 02:24:04;;;;;;;4.35;2.80;;;14.60;46.30;;;;;;6188751;23;20024;-78
2023/04/22 02:26:30;;;;;;;4.47;2.85;;;14.60;46.30;;;;;;6240459;22;20020;-77
2023/04/22 02:28:57;;;;;;;5.78;2.80;;;14.60;46.40;;;;;;6240430;22;20020;-76
2023/04/22 02:31:24;;;;;;;3.63;2.53;;;14.60;46.50;;;;;;6188375;23;20069;-77
2023/04/22 02:33:50;;;;;;;6.32;2.85;;;14.60;46.60;;;;;;6240867;22;20008;-78
2023/04/22 02:36:16;;;;;;;4.78;2.85;;;14.50;46.50;;;;;;6214913;23;20073;-77
2023/04/22 02:38:42;;;;;;;5.10;2.72;;;14.50;46.60;;;;;;6241672;22;20016;-77
2023/04/22 02:41:08;;;;;;;6.57;2.58;;;14.50;46.60;;;;;;6214258;23;20493;-77
2023/04/22 02:43:35;;;;;;;6.07;2.95;;;14.50;46.60;;;;;;6213745;23;20372;-78
2023/04/22 02:46:01;;;;;;;4.72;2.58;;;14.50;46.60;;;;;;6188917;22;20020;-78
2023/04/22 02:48:27;;;;;;;4.70;2.70;;;14.50;46.60;;;;;;6214470;23;20012;-77
2023/04/22 02:50:53;;;;;;;3.70;2.72;;;14.50;46.60;;;;;;6213595;23;20024;-78
2023/04/22 02:53:19;;;;;;;6.68;3.20;;;14.40;46.70;;;;;;6213906;23;20040;-78
2023/04/22 02:55:45;;;;;;;5.68;3.13;;;14.50;46.80;;;;;;6240738;22;20031;-77
2023/04/22 02:58:11;;;;;;;5.63;3.25;;;14.50;46.80;;;;;;6188984;23;20011;-78
2023/04/22 03:00:37;;;;;;;6.97;2.70;;;14.40;46.80;;;;;;6189468;23;20008;-78
2023/04/22 03:03:03;;;;;;;4.63;3.15;;;14.50;46.80;;;;;;6213592;23;20099;-79
2023/04/22 03:05:33;;;;;;;8.98;3.03;;;14.40;46.90;;;;;;6189111;23;20020;-77
2023/04/22 03:08:00;;;;;;;5.70;2.95;;;14.50;46.90;;;;;;6213327;23;20473;-77
2023/04/22 03:10:27;;;;;;;4.78;2.78;;;14.40;47.00;;;;;;6213479;23;20027;-77
2023/04/22 03:12:53;;;;;;;4.40;2.88;;;14.40;47.00;;;;;;6213004;22;20012;-77
2023/04/22 03:15:20;;;;;;;6.10;2.80;;;14.50;47.00;;;;;;6240838;23;20066;-78
2023/04/22 03:17:46;;;;;;;5.53;3.13;;;14.40;47.00;;;;;;6240335;22;20016;-78
2023/04/22 03:20:14;;;;;;;6.82;2.95;;;14.40;47.00;;;;;;6213509;23;20371;-78
2023/04/22 03:22:41;;;;;;;6.95;3.47;;;14.40;47.10;;;;;;6213958;23;20016;-78
2023/04/22 03:25:10;;;;;;;5.45;3.08;;;14.40;47.10;;;;;;6213029;23;20016;-78
2023/04/22 03:27:36;;;;;;;8.38;3.10;;;14.40;47.10;;;;;;6213792;23;20016;-78
2023/04/22 03:30:03;;;;;;;8.40;2.88;;;14.40;47.10;;;;;;6240336;22;20532;-78
2023/04/22 03:32:30;;;;;;;3.42;2.53;;;14.40;47.10;;;;;;6213712;23;20460;-78
2023/04/22 03:35:13;;;;;;;4.97;2.95;;;14.40;47.00;;;;;;6213286;23;20474;-78
2023/04/22 03:37:39;;;;;;;6.78;2.72;;;14.50;47.00;;;;;;6213314;23;20090;-78
2023/04/22 03:40:08;;;;;;;4.95;2.75;;;14.40;47.00;;;;;;6213936;22;20544;-78
2023/04/22 03:42:34;;;;;;;4.55;2.63;;;14.40;47.10;;;;;;6214289;23;20016;-78
2023/04/22 03:45:00;;;;;;;3.75;2.40;;;14.50;47.20;;;;;;6213520;23;20044;-76
2023/04/22 03:47:34;;;;;;;4.55;2.80;;;14.50;47.10;;;;;;6187272;23;20024;-76
2023/04/22 03:50:08;;;;;;;3.83;3.00;;;14.40;46.90;;;;;;6212589;23;20066;-76
2023/04/22 03:52:34;;;;;;;5.07;2.50;;;14.40;46.90;;;;;;6212560;23;20024;-76
2023/04/22 03:55:02;;;;;;;4.57;2.90;;;14.40;47.10;;;;;;6239498;22;20012;-76
2023/04/22 03:57:29;;;;;;;4.32;2.80;;;14.40;47.20;;;;;;6187794;23;20111;-77
2023/04/22 03:59:56;;;;;;;3.60;2.58;;;14.40;47.10;;;;;;6187645;23;20016;-75
2023/04/22 04:02:22;;;;;;;5.68;3.38;;;14.40;47.10;;;;;;6212423;23;20027;-76
2023/04/22 04:04:48;;;;;;;4.40;2.88;;;14.40;47.00;;;;;;6212636;23;20016;-76
2023/04/22 04:07:15;;;;;;;5.18;2.83;;;14.30;47.00;;;;;;6187669;23;20012;-76
2023/04/22 04:09:41;;;;;;;4.13;2.63;;;14.40;47.20;;;;;;6213667;23;20447;-76
2023/04/22 04:12:07;;;;;;;4.65;2.97;;;14.30;47.20;;;;;;6187463;23;20019;-76
2023/04/22 04:14:38;;;;;;;5.38;2.83;;;14.40;47.20;;;;;;6212734;23;20531;-77
2023/04/22 04:17:07;;;;;;;5.63;2.63;;;14.30;47.20;;;;;;6212226;23;20143;-78
2023/04/22 04:19:34;;;;;;;6.88;2.97;;;14.30;47.30;;;;;;6212330;23;20494;-76
2023/04/22 04:22:02;;;;;;;6.55;3.58;;;14.40;47.40;;;;;;6212490;22;20072;-79
2023/04/22 04:24:32;;;;;;;7.38;2.97;;;14.40;47.50;;;;;;6189774;23;20023;-79
2023/04/22 04:27:05;;;;;;;6.20;2.70;;;14.40;47.30;;;;;;6189682;23;20426;-79
2023/04/22 04:29:40;;;;;;;3.63;2.58;;;14.50;47.40;;;;;;6211309;23;20035;-79
2023/04/22 04:32:11;;;;;;;3.47;2.40;;;14.60;47.30;;;;;;6189262;23;20090;-78
2023/04/22 04:34:37;;;;;;;5.65;2.40;;;14.80;47.20;;;;;;6213040;23;20467;-78
2023/04/22 04:37:05;;;;;;;3.88;2.60;;;14.90;47.00;;;;;;6213482;22;20273;-78
2023/04/22 04:39:42;;;;;;;3.55;2.67;;;15.10;47.20;;;;;;6213999;23;20008;-78
2023/04/22 04:42:09;;;;;;;4.57;2.35;;;15.30;46.60;;;;;;6213249;23;20035;-78
2023/04/22 04:44:46;;;;;;;;;;;15.50;46.20;;;;;;6213814;23;20028;-76
2023/04/22 04:47:13;;;;;;;3.83;2.30;;;15.70;46.00;;;;;;6212778;22;19915;-79
2023/04/22 04:49:40;;;;;;;6.15;2.30;;;15.90;45.60;;;;;;6212415;23;20562;-79
2023/04/22 04:52:09;;;;;;;6.00;2.10;;;16.10;45.30;;;;;;6212752;22;20023;-79
2023/04/22 04:54:35;;;;;;;4.15;2.08;;;16.20;45.00;;;;;;6213419;23;20019;-78
2023/04/22 04:57:02;;;;;;;3.45;1.90;;;16.40;44.90;;;;;;6163117;23;20020;-78
2023/04/22 04:59:33;;;;;;;4.20;2.05;;;16.50;44.60;;;;;;6213482;23;20067;-79
2023/04/22 05:01:59;;;;;;;3.00;1.85;;;16.70;44.30;;;;;;6212962;23;20547;-78
2023/04/22 05:04:25;;;;;;;4.20;1.67;;;16.80;43.90;;;;;;6213187;23;20016;-78
2023/04/22 05:06:53;;;;;;;2.75;1.98;;;17.00;43.50;;;;;;6212389;22;20068;-78
2023/04/22 05:09:19;;;;;;;3.35;1.80;;;17.10;43.60;;;;;;6189243;23;20031;-78
2023/04/22 05:11:48;;;;;;;2.20;1.73;;;17.20;43.50;;;;;;6212085;23;20024;-77
2023/04/22 05:14:18;;;;;;;5.35;2.20;;;17.40;43.20;;;;;;6187642;23;20024;-76
2023/04/22 05:16:45;;;;;;;3.05;1.70;;;17.60;43.10;;;;;;6210499;23;20039;-77
2023/04/22 05:19:12;;;;;;;2.92;2.00;;;17.70;42.70;;;;;;6211840;23;20020;-76
2023/04/22 05:21:38;;;;;;;2.72;1.80;;;17.90;42.50;;;;;;6239388;23;20034;-77
2023/04/22 05:24:05;;;;;;;2.50;1.80;;;18.00;42.40;;;;;;6238405;22;20568;-77
2023/04/22 05:26:31;;;;;;;4.07;1.80;;;18.20;42.20;;;;;;6212166;22;20478;-78
2023/04/22 05:28:58;;;;;;;3.83;1.92;;;18.40;42.20;;;;;;6162119;23;20020;-77
2023/04/22 05:31:24;;;;;;;2.35;1.63;;;18.50;41.70;;;;;;6183154;23;20020;-76
2023/04/22 05:33:50;;;;;;;3.45;1.67;;;18.70;41.60;;;;;;6186973;22;20011;-77
2023/04/22 05:36:16;;;;;;;2.95;1.90;;;18.80;41.40;;;;;;6161461;23;20015;-77
2023/04/22 05:38:45;;;;;;;2.42;1.60;;;19.00;41.20;;;;;;6211700;23;20016;-78
2023/04/22 05:41:11;;;;;;;2.83;1.73;;;19.20;40.70;;;;;;6186849;23;20023;-78
2023/04/22 05:43:37;;;;;;;2.58;1.70;;;19.30;40.20;;;;;;6238110;22;20020;-78
2023/04/22 05:46:08;;;;;;;2.92;1.65;;;19.50;40.10;;;;;;6210755;23;20759;-77
2023/04/22 05:48:37;;;;;;;1.65;1.42;;;19.60;39.90;;;;;;6211093;23;20051;-78
2023/04/22 05:51:07;;;;;;;2.28;1.65;;;19.70;39.50;;;;;;6187720;23;20482;-77
2023/04/22 05:53:34;;;;;;;1.63;1.35;;;19.90;39.60;;;;;;6212015;23;20074;-77
2023/04/22 05:56:01;;;;;;;2.38;1.38;;;20.00;39.20;;;;;;6212023;23;20024;-77
2023/04/22 05:58:27;;;;;;;1.80;1.08;;;20.10;39.00;;;;;;6187238;23;20020;-76
2023/04/22 06:00:57;;;;;;;2.22;1.30;;;20.30;38.60;;;;;;6238838;22;20015;-77
2023/04/22 06:03:44;;;;;;;1.92;1.00;;;20.40;38.50;;;;;;6212404;22;20016;-78
2023/04/22 06:06:11;;;;;;;2.75;1.13;;;20.50;38.30;;;;;;6240207;23;20095;-77
2023/04/22 06:08:38;;;;;;;3.00;1.30;;;20.60;38.10;;;;;;6213429;23;20037;-79
2023/04/22 06:11:04;;;;;;;1.58;1.23;;;20.70;38.00;;;;;;6190482;23;20103;-78
2023/04/22 06:13:32;;;;;;;2.33;1.23;;;20.90;37.90;;;;;;6214595;23;20019;-79
2023/04/22 06:16:00;;;;;;;1.50;1.05;;;21.00;37.80;;;;;;6216027;22;20428;-77
2023/04/22 06:18:26;;;;;;;1.77;1.00;;;21.10;37.60;;;;;;6215652;23;20087;-77
2023/04/22 06:20:52;;;;;;;1.30;0.95;;;21.20;37.40;;;;;;6212779;23;20020;-81
2023/04/22 06:23:18;;;;;;;1.80;0.82;;;21.30;37.30;;;;;;6238980;22;20024;-77
2023/04/22 06:25:46;;;;;;;1.10;0.82;;;21.40;37.10;;;;;;6211951;23;20024;-81
2023/04/22 06:28:12;;;;;;;1.25;0.68;;;21.50;36.90;;;;;;6186682;23;20363;-79
2023/04/22 06:30:38;;;;;;;2.30;1.05;;;21.60;36.80;;;;;;6212402;23;20034;-79
2023/04/22 06:33:05;;;;;;;1.90;0.93;;;21.70;36.50;;;;;;6213281;23;20024;-79
2023/04/22 06:35:31;;;;;;;2.55;1.17;;;21.80;36.40;;;;;;6212441;23;20145;-79
2023/04/22 06:37:57;;;;;;;0.55;0.55;;;21.80;36.30;;;;;;6239640;22;20431;-80
2023/04/22 06:40:27;;;;;;;0.82;0.73;;;21.80;36.30;;;;;;6238287;22;20022;-79
2023/04/22 06:43:13;;;;;;;1.58;0.75;;;21.90;36.20;;;;;;6213358;23;20019;-79
2023/04/22 06:45:58;;;;;;;0.98;0.70;;;21.90;35.90;;;;;;6241818;22;20020;-78
2023/04/22 06:48:42;;;;;;;2.53;0.60;;;21.90;36.10;;;;;;6240036;23;20392;-84
2023/04/22 06:51:32;;;;;;;0.52;0.52;;;22.00;36.10;;;;;;6223917;23;20185;-78
2023/04/22 06:53:58;;;;;;;1.52;0.50;;;22.00;35.90;;;;;;6214202;23;20065;-80
2023/04/22 06:56:24;;;;;;;0.60;0.40;;;22.00;35.90;;;;;;6215107;23;20050;-79
2023/04/22 06:58:50;;;;;;;3.35;0.70;;;22.10;35.90;;;;;;6240784;22;20078;-80
2023/04/22 07:01:16;;;;;;;0.75;0.50;;;22.10;35.90;;;;;;6241263;22;20100;-78
2023/04/22 07:03:42;;;;;;;0.82;0.60;;;22.10;36.30;;;;;;6215564;23;20015;-78
2023/04/22 07:06:13;;;;;;;1.55;0.52;;;22.20;36.10;;;;;;6214159;23;20081;-79
2023/04/22 07:08:40;;;;;;;2.47;0.70;;;22.30;35.80;;;;;;6213304;23;20028;-79
2023/04/22 07:11:07;;;;;;;1.85;0.60;;;22.30;35.50;;;;;;6187573;23;20020;-80
2023/04/22 07:13:36;;;;;;;1.60;0.73;;;22.30;35.60;;;;;;6238456;22;20024;-80
2023/04/22 07:16:02;;;;;;;2.15;0.73;;;22.30;35.60;;;;;;6239723;22;20023;-78
2023/04/22 07:18:28;;;;;;;1.50;0.68;;;22.40;35.40;;;;;;6213200;23;20012;-76
2023/04/22 07:20:54;;;;;;;1.20;0.50;;;22.40;35.20;;;;;;6238877;22;20030;-78
2023/04/22 07:23:20;;;;;;;1.23;0.70;;;22.40;35.00;;;;;;6187995;23;20020;-81
2023/04/22 07:25:46;;;;;;;0.82;0.63;;;22.30;34.70;;;;;;6240743;22;20020;-80
2023/04/22 07:28:12;;;;;;;2.35;0.60;;;22.30;35.30;;;;;;6186869;23;20020;-78
2023/04/22 07:30:38;;;;;;;1.85;0.73;;;22.30;35.20;;;;;;6239762;23;20525;-80
2023/04/22 07:33:04;;;;;;;1.58;0.73;;;22.30;34.80;;;;;;6239108;22;20495;-84
2023/04/22 07:35:30;;;;;;;3.20;0.60;;;22.20;34.40;;;;;;6211129;23;20024;-82
2023/04/22 07:37:56;;;;;;;1.35;0.70;;;22.30;34.50;;;;;;6238273;22;20020;-85
2023/04/22 07:40:22;;;;;;;1.30;0.70;;;22.30;34.60;;;;;;6239749;22;20019;-84
2023/04/22 07:42:48;;;;;;;0.90;0.68;;;22.30;34.70;;;;;;6239622;22;20347;-90
2023/04/22 07:45:14;;;;;;;2.05;0.70;;;22.20;34.50;;;;;;6241235;23;20439;-81
2023/04/22 07:47:40;;;;;;;2.13;0.80;;;22.20;34.90;;;;;;6238428;22;20016;-79
2023/04/22 07:50:07;;;;;;;0.98;0.80;;;22.10;34.90;;;;;;6212389;23;20016;-78
2023/04/22 07:52:33;;;;;;;1.70;0.90;;;22.10;35.20;;;;;;6238632;22;20099;-79
2023/04/22 07:54:59;;;;;;;1.23;0.80;;;22.00;35.30;;;;;;6239221;22;20042;-77
2023/04/22 07:57:25;;;;;;;2.17;0.80;;;22.00;35.60;;;;;;6215009;23;20415;-76
2023/04/22 07:59:51;;;;;;;1.65;0.80;;;22.00;35.60;;;;;;6239604;22;20020;-80
2023/04/22 08:02:17;;;;;;;1.05;0.93;;;21.90;35.50;;;;;;6241286;22;20020;-77
2023/04/22 08:04:43;;;;;;;1.20;0.90;;;21.90;35.60;;;;;;6240170;22;20023;-77
2023/04/22 08:07:09;;;;;;;1.73;0.80;;;21.90;36.00;;;;;;6212270;23;20012;-78
2023/04/22 08:09:35;;;;;;;0.88;0.70;;;21.80;36.50;;;;;;6239869;23;20008;-77
2023/04/22 08:12:02;;;;;;;3.83;0.90;;;21.80;36.10;;;;;;6237800;22;20043;-77
2023/04/22 08:14:28;;;;;;;1.33;0.77;;;21.70;35.70;;;;;;6238866;22;20099;-77
2023/04/22 08:16:54;;;;;;;1.75;0.90;;;21.60;35.50;;;;;;6186146;23;20047;-78
2023/04/22 08:19:20;;;;;;;1.02;0.75;;;21.60;35.90;;;;;;6237186;22;20450;-77
2023/04/22 08:21:47;;;;;;;0.70;0.70;;;21.60;35.80;;;;;;6236639;22;20430;-75
2023/04/22 08:24:13;;;;;;;1.88;0.80;;;21.50;35.50;;;;;;6185594;23;20401;-78
2023/04/22 08:26:40;;;;;;;2.20;0.90;;;21.40;35.40;;;;;;6210269;23;20402;-78
2023/04/22 08:29:06;;;;;;;2.28;0.90;;;21.30;35.40;;;;;;6236313;22;20027;-78
2023/04/22 08:31:33;;;;;;;1.58;0.63;;;21.20;35.50;;;;;;6210613;23;20020;-78
2023/04/22 08:33:59;;;;;;;0.98;0.75;;;21.20;35.70;;;;;;6210570;22;20103;-79
2023/04/22 08:36:26;;;;;;;1.42;0.70;;;21.10;35.90;;;;;;6209356;23;20066;-79
2023/04/22 08:38:53;;;;;;;1.15;0.70;;;21.10;36.10;;;;;;6237070;22;20024;-81
2023/04/22 08:41:21;;;;;;;0.63;0.57;;;21.10;35.20;;;;;;6210667;23;20016;-80
2023/04/22 08:43:48;;;;;;;1.67;0.80;;;21.00;35.10;;;;;;6237107;22;20067;-79
2023/04/22 08:46:18;;;;;;;1.85;0.70;;;21.00;35.20;;;;;;6236477;22;20463;-78
2023/04/22 08:48:48;;;;;;;0.80;0.80;;;20.90;35.10;;;;;;6184872;22;20024;-79
2023/04/22 08:51:15;;;;;;;2.35;0.65;;;20.90;35.40;;;;;;6237581;23;20495;-80
2023/04/22 08:53:45;;;;;;;1.33;0.70;;;20.80;35.40;;;;;;6210419;23;20027;-78
2023/04/22 08:56:15;;;;;;;0.80;0.80;;;20.70;35.60;;;;;;6237660;22;20142;-79
2023/04/22 08:58:41;;;;;;;1.08;0.90;;;20.70;35.70;;;;;;6210350;23;20502;-79
2023/04/22 09:01:08;;;;;;;0.80;0.80;;;20.70;36.10;;;;;;6210208;22;20008;-79
2023/04/22 09:03:36;;;;;;;1.55;0.85;;;20.70;36.10;;;;;;6237900;23;20016;-81
2023/04/22 09:06:06;;;;;;;1.40;0.85;;;20.70;36.20;;;;;;6236844;22;20078;-78
2023/04/22 09:08:32;;;;;;;3.03;1.10;;;20.70;36.80;;;;;;6237277;22;20024;-77
2023/04/22 09:10:59;;;;;;;4.53;0.90;;;20.70;37.10;;;;;;6238621;22;20028;-79
2023/04/22 09:13:28;;;;;;;2.42;0.75;;;20.70;36.70;;;;;;6237323;22;20107;-79
2023/04/22 09:15:54;;;;;;;1.08;0.93;;;20.70;36.70;;;;;;6238192;22;20021;-79
2023/04/22 09:18:20;;;;;;;2.67;0.90;;;20.70;37.30;;;;;;6238061;23;20012;-80
2023/04/22 09:20:48;;;;;;;1.30;0.90;;;20.70;37.40;;;;;;6209890;23;20020;-79
2023/04/22 09:23:15;;;;;;;1.50;0.95;;;20.70;37.40;;;;;;6237453;22;20028;-80
2023/04/22 09:25:41;;;;;;;1.30;0.70;;;20.70;37.30;;;;;;6238004;22;20370;-80
2023/04/22 09:28:15;;;;;;;1.73;1.02;;;20.70;37.20;;;;;;6240616;22;20016;-81
2023/04/22 09:30:45;;;;;;;1.13;1.02;;;20.70;37.30;;;;;;6241958;23;20016;-77
2023/04/22 09:33:16;;;;;;;1.45;1.05;;;20.70;37.50;;;;;;6240931;23;20027;-80
2023/04/22 09:35:43;;;;;;;1.88;1.23;;;20.60;36.70;;;;;;6213788;23;20020;-76
2023/04/22 09:38:11;;;;;;;1.33;1.20;;;20.60;36.50;;;;;;6214753;23;20039;-78
2023/04/22 09:40:40;;;;;;;2.03;1.20;;;20.50;36.40;;;;;;6214351;23;20081;-78
2023/04/22 09:43:08;;;;;;;2.03;1.38;;;20.50;36.50;;;;;;6241249;22;20016;-77
2023/04/22 09:45:39;;;;;;;1.58;1.00;;;20.50;36.80;;;;;;6242205;23;20012;-77
2023/04/22 09:48:08;;;;;;;4.13;1.20;;;20.50;37.10;;;;;;6214607;23;20016;-77
2023/04/22 09:50:34;;;;;;;2.33;1.40;;;20.50;37.60;;;;;;6214929;23;20023;-78
2023/04/22 09:53:08;;;;;;;3.45;1.63;;;20.50;38.00;;;;;;6241746;22;20016;-78
2023/04/22 09:55:38;;;;;;;2.20;1.70;;;20.50;37.80;;;;;;6240789;22;20027;-78
2023/04/22 09:58:09;;;;;;;2.00;1.80;;;20.50;37.40;;;;;;6241403;22;20024;-77
2023/04/22 10:00:49;;;;;;;1.83;1.73;;;20.50;37.00;;;;;;6241699;23;20078;-76
2023/04/22 10:03:15;;;;;;;2.53;1.88;;;20.50;36.20;;;;;;6241347;23;20102;-79
2023/04/22 10:05:43;;;;;;;2.92;2.22;;;20.40;35.80;;;;;;6241859;22;20531;-78
2023/04/22 10:08:11;;;;;;;3.83;2.30;;;20.40;36.20;;;;;;6214343;23;20012;-77
2023/04/22 10:10:37;;;;;;;4.07;2.20;;;20.40;37.00;;;;;;6240786;22;20098;-79
2023/04/22 10:13:05;;;;;;;3.72;2.60;;;20.30;37.20;;;;;;6213637;22;20008;-79
2023/04/22 10:15:40;;;;;;;3.53;2.65;;;20.30;36.80;;;;;;6239846;23;20019;-77
2023/04/22 10:18:09;;;;;;;3.63;2.60;;;20.30;36.90;;;;;;6239887;22;20474;-78
2023/04/22 10:20:38;;;;;;;5.70;2.90;;;20.30;37.30;;;;;;6213306;23;20023;-77
2023/04/22 10:23:10;;;;;;;4.60;3.00;;;20.30;37.60;;;;;;6239785;22;20026;-76
2023/04/22 10:25:39;;;;;;;3.70;2.63;;;20.30;37.20;;;;;;6240344;22;20074;-78
2023/04/22 10:28:08;;;;;;;4.97;2.65;;;20.30;37.20;;;;;;6212302;22;20017;-77
2023/04/22 10:30:36;;;;;;;3.67;2.50;;;20.20;37.60;;;;;;6241071;23;20455;-80
2023/04/22 10:33:26;;;;;;;3.65;2.20;;;20.30;37.60;;;;;;6242675;22;20493;-80
2023/04/22 10:36:13;;;;;;;3.10;1.80;;;20.20;37.00;;;;;;6243277;22;20020;-77
2023/04/22 10:39:00;;;;;;;1.65;1.55;;;20.20;36.90;;;;;;6239283;22;20016;-79
2023/04/22 10:41:34;;;;;;;3.42;1.30;;;20.20;35.70;;;;;;6242522;22;20031;-78
2023/04/22 10:44:07;;;;;;;2.08;1.30;;;20.20;35.60;;;;;;6243360;22;20099;-85
2023/04/22 10:46:36;;;;;;;1.48;1.38;;;20.10;35.80;;;;;;6190861;23;20016;-77
2023/04/22 10:49:22;;;;;;;1.45;1.35;;;20.10;35.90;;;;;;6243509;22;20012;-78
2023/04/22 10:51:49;;;;;;;1.50;1.30;;;20.10;36.20;;;;;;6241449;22;20008;-79
2023/04/22 10:54:45;;;;;;;1.90;1.42;;;20.10;35.60;;;;;;6243363;23;20087;-79
2023/04/22 10:57:17;;;;;;;2.70;1.47;;;20.00;35.50;;;;;;6242645;23;20046;-79
2023/04/22 10:59:52;;;;;;;2.40;1.55;;;19.90;35.30;;;;;;6215613;23;20012;-78
2023/04/22 11:02:19;;;;;;;3.40;1.70;;;19.80;35.30;;;;;;6190890;23;20023;-78
2023/04/22 11:04:46;;;;;;;2.75;1.60;;;19.80;35.30;;;;;;6214646;23;20362;-79
2023/04/22 11:07:21;;;;;;;5.00;1.92;;;19.70;35.50;;;;;;6242630;22;20012;-77
2023/04/22 11:09:58;;;;;;;1.40;1.30;;;19.60;36.00;;;;;;6243361;22;20008;-78
2023/04/22 11:12:40;;;;;;;3.50;1.95;;;19.60;36.50;;;;;;6214990;23;20040;-79
2023/04/22 11:15:18;;;;;;;1.75;1.50;;;19.50;36.90;;;;;;6241047;22;20099;-78
2023/04/22 11:17:47;;;;;;;2.25;1.65;;;19.50;36.30;;;;;;6213316;23;20036;-78
2023/04/22 11:20:17;;;;;;;1.88;1.70;;;19.50;37.00;;;;;;6162976;23;20024;-78
2023/04/22 11:22:46;;;;;;;1.80;1.50;;;19.60;37.50;;;;;;6239911;22;20024;-78
2023/04/22 11:25:13;;;;;;;2.60;1.50;;;19.60;37.10;;;;;;6239805;22;20332;-78
2023/04/22 11:27:42;;;;;;;2.17;1.20;;;19.60;36.50;;;;;;6240586;23;20011;-77
2023/04/22 11:30:13;;;;;;;2.35;1.50;;;19.60;35.80;;;;;;6239715;22;20073;-78
2023/04/22 11:32:45;;;;;;;1.30;1.13;;;19.60;35.40;;;;;;6239550;22;20020;-78
2023/04/22 11:35:17;;;;;;;1.45;1.27;;;19.50;35.10;;;;;;6187942;23;20027;-77
2023/04/22 11:37:51;;;;;;;1.33;1.20;;;19.50;35.50;;;;;;6187193;23;20605;-76
2023/04/22 11:40:20;;;;;;;1.77;1.50;;;19.60;35.90;;;;;;6239368;22;20016;-80
2023/04/22 11:42:47;;;;;;;2.65;1.42;;;19.60;36.10;;;;;;6238567;22;20026;-78
2023/04/22 11:45:15;;;;;;;1.77;1.40;;;19.60;36.60;;;;;;6213060;23;20016;-79
2023/04/22 11:47:41;;;;;;;1.73;1.17;;;19.60;36.30;;;;;;6239345;22;20020;-76
2023/04/22 11:50:10;;;;;;;4.30;1.60;;;19.60;37.20;;;;;;6212118;23;20027;-78
2023/04/22 11:52:44;;;;;;;2.03;1.30;;;19.60;36.60;;;;;;6239133;22;20024;-78
2023/04/22 11:55:11;;;;;;;2.63;1.30;;;19.60;36.90;;;;;;6212947;23;20074;-79
2023/04/22 11:57:38;;;;;;;2.50;1.40;;;19.60;37.00;;;;;;6239596;23;20012;-78
2023/04/22 12:00:06;;;;;;;2.03;1.20;;;19.60;37.20;;;;;;6239097;22;20042;-79
2023/04/22 12:02:32;;;;;;;3.97;1.52;;;19.60;37.50;;;;;;6240260;22;20106;-79
2023/04/22 12:04:59;;;;;;;1.45;1.35;;;19.60;38.00;;;;;;6213533;23;20043;-80
2023/04/22 12:07:28;;;;;;;2.53;1.73;;;19.60;38.10;;;;;;6239859;22;20020;-80
2023/04/22 12:09:54;;;;;;;3.33;1.30;;;19.70;38.40;;;;;;6239526;22;20015;-79
2023/04/22 12:12:25;;;;;;;3.20;1.63;;;19.70;38.50;;;;;;6240118;23;20134;-80
2023/04/22 12:14:51;;;;;;;4.13;2.05;;;19.70;38.80;;;;;;6213123;23;20016;-81
2023/04/22 12:17:23;;;;;;;2.00;1.40;;;19.80;39.00;;;;;;6213527;23;20105;-80
2023/04/22 12:19:56;;;;;;;1.75;1.40;;;19.80;38.90;;;;;;6240215;22;20024;-78
2023/04/22 12:22:29;;;;;;;2.33;1.50;;;19.80;37.30;;;;;;6238721;22;20023;-82
2023/04/22 12:25:00;;;;;;;1.63;1.23;;;19.80;38.40;;;;;;6238278;22;20023;-83
2023/04/22 12:27:26;;;;;;;3.30;1.55;;;19.80;36.50;;;;;;6239195;23;20083;-81
2023/04/22 12:29:56;;;;;;;6.72;1.60;;;19.80;35.90;;;;;;6186999;23;20040;-82
2023/04/22 12:32:25;;;;;;;1.73;1.42;;;19.80;35.20;;;;;;6211632;23;20024;-84
2023/04/22 12:34:51;;;;;;;2.60;1.40;;;19.70;35.60;;;;;;6238758;22;20024;-81
2023/04/22 12:37:18;;;;;;;2.05;1.48;;;19.70;36.00;;;;;;6238825;22;20020;-83
2023/04/22 12:39:44;;;;;;;2.45;1.38;;;19.60;36.00;;;;;;6238788;23;20399;-82
2023/04/22 12:42:11;;;;;;;1.77;1.40;;;19.70;36.20;;;;;;6212174;23;20123;-82
2023/04/22 12:44:37;;;;;;;1.83;1.38;;;19.60;36.10;;;;;;6239425;22;20043;-80
2023/04/22 12:47:03;;;;;;;2.42;1.52;;;19.60;36.10;;;;;;6211338;23;20023;-78
2023/04/22 12:49:29;;;;;;;1.40;1.30;;;19.60;36.30;;;;;;6238122;22;20106;-80
2023/04/22 12:51:55;;;;;;;2.38;1.60;;;19.60;36.90;;;;;;6238091;22;20359;-79
2023/04/22 12:54:21;;;;;;;2.10;1.33;;;19.60;37.50;;;;;;6239405;23;20012;-79